Colorado Springs, Colorado
Current Conditions -  °F | °C
As of 3:54 PM on Wednesday 26 Nov 2014 (Local Time) from KCOS Reporting Station
Broken Clouds Broken Clouds  
Wind Chill: 30°   Ceiling: 20000
Heat Index: 36°   Visibility: 10mi
Dew Point: 25°   Wind: 7mph
Humidity: 64%   Direction: 160°SSE
Pressure: 30.22"   Gusts: NA
Location:  38.83°N, 104.82°W
Report Text: KCOS 262254Z 16006KT 10SM FEW080 BKN200 02/M04 A3022 RMK AO2 SLP271 T00221039
Loading
Personal Weather Stations






























Interactive Weather Map New forecast layout! Learn more

10-Day Weather Forecast

Advertisements
Track Severe Weather on mobile